createdAt,value
2022-11-25T00:00:27.418Z,25.42
2022-11-25T00:01:32.072Z,25.80
2022-11-25T00:02:34.864Z,22.60
2022-11-25T00:03:38.599Z,24.35
2022-11-25T00:04:41.346Z,23.13
2022-11-25T00:05:44.034Z,24.50
2022-11-25T00:06:46.751Z,26.52
2022-11-25T00:07:49.479Z,22.55
2022-11-25T00:08:54.874Z,24.50
2022-11-25T00:09:57.674Z,24.88
2022-11-25T00:11:03.456Z,25.85
2022-11-25T00:12:06.235Z,26.23
2022-11-25T00:13:08.857Z,25.42
2022-11-25T00:14:14.265Z,23.33
2022-11-25T00:15:16.911Z,23.83
2022-11-25T00:16:21.648Z,24.98
2022-11-25T00:17:24.322Z,25.77
2022-11-25T00:18:27.007Z,25.60
2022-11-25T00:19:29.751Z,24.48
2022-11-25T00:20:32.390Z,26.10
2022-11-25T00:21:35.192Z,23.20
2022-11-25T00:22:37.805Z,25.98
2022-11-25T00:23:40.804Z,24.17
2022-11-25T00:24:43.592Z,23.88
2022-11-25T00:25:46.289Z,24.77
2022-11-25T00:26:48.912Z,25.70
2022-11-25T00:27:53.302Z,25.80
2022-11-25T00:28:58.803Z,26.90
2022-11-25T00:30:01.629Z,25.00
2022-11-25T00:31:09.620Z,25.88
2022-11-25T00:32:12.363Z,25.25
2022-11-25T00:33:15.264Z,25.10
2022-11-25T00:34:17.935Z,26.15
2022-11-25T00:35:21.412Z,24.33
2022-11-25T00:36:30.966Z,24.48
2022-11-25T00:37:33.671Z,25.40
2022-11-25T00:38:36.528Z,25.63
2022-11-25T00:39:39.268Z,24.58
2022-11-25T00:40:42.006Z,24.63
2022-11-25T00:42:04.973Z,25.75
2022-11-25T00:43:27.643Z,26.98
2022-11-25T00:44:36.459Z,25.00
2022-11-25T00:45:39.563Z,26.70
2022-11-25T00:46:42.684Z,26.00
2022-11-25T00:47:45.319Z,30.73
2022-11-25T00:48:48.025Z,25.33
2022-11-25T00:49:53.461Z,28.00
2022-11-25T00:50:56.309Z,29.10
2022-11-25T00:51:59.144Z,28.25
2022-11-25T00:53:01.770Z,26.27
2022-11-25T00:54:04.657Z,26.52
2022-11-25T00:55:07.762Z,27.38
2022-11-25T00:56:13.314Z,27.30
2022-11-25T00:57:17.894Z,28.60
2022-11-25T00:58:21.635Z,27.65
2022-11-25T00:59:24.352Z,25.98
2022-11-25T01:00:27.055Z,27.15
2022-11-25T01:01:29.891Z,26.40
2022-11-25T01:02:32.583Z,24.13
2022-11-25T01:03:37.186Z,24.98
2022-11-25T01:04:40.121Z,26.67
2022-11-25T01:05:42.717Z,28.17
2022-11-25T01:06:45.345Z,27.35
2022-11-25T01:07:51.003Z,25.88
2022-11-25T01:08:54.179Z,26.67
2022-11-25T01:09:57.181Z,25.77
2022-11-25T01:11:02.023Z,26.63
2022-11-25T01:12:05.455Z,26.92
2022-11-25T01:13:08.113Z,25.30
2022-11-25T01:14:11.688Z,25.50
2022-11-25T01:15:14.356Z,27.17
2022-11-25T01:16:21.012Z,25.52
2022-11-25T01:17:23.721Z,26.50
2022-11-25T01:18:30.627Z,30.15
2022-11-25T01:19:33.524Z,26.73
2022-11-25T01:20:36.242Z,27.27
2022-11-25T01:21:38.962Z,27.70
2022-11-25T01:22:41.659Z,28.13
2022-11-25T01:23:44.808Z,29.30
2022-11-25T01:24:49.057Z,26.98
2022-11-25T01:25:51.940Z,27.45
2022-11-25T01:26:56.059Z,27.40
2022-11-25T01:27:58.794Z,27.42
2022-11-25T01:29:05.216Z,28.38
2022-11-25T01:30:10.147Z,26.60
2022-11-25T01:31:18.214Z,26.30
2022-11-25T01:32:20.917Z,27.17
2022-11-25T01:33:24.778Z,28.38
2022-11-25T01:34:28.223Z,26.60
2022-11-25T01:35:32.951Z,27.83
2022-11-25T01:36:35.955Z,25.73
2022-11-25T01:37:38.875Z,27.50
2022-11-25T01:38:41.848Z,26.92
2022-11-25T01:39:44.550Z,27.58
2022-11-25T01:40:47.401Z,28.88
2022-11-25T01:41:50.418Z,27.25
2022-11-25T01:42:53.131Z,27.15
2022-11-25T01:44:05.779Z,28.83
2022-11-25T01:45:27.881Z,29.42
2022-11-25T01:46:51.578Z,27.02
2022-11-25T01:47:57.133Z,28.27
2022-11-25T01:49:02.829Z,30.30
2022-11-25T01:50:06.551Z,28.65
2022-11-25T01:51:30.346Z,28.30
2022-11-25T01:52:39.611Z,28.23
2022-11-25T01:53:42.301Z,26.95
2022-11-25T01:54:57.425Z,28.45
2022-11-25T01:56:02.807Z,28.02
2022-11-25T01:57:11.165Z,27.98
2022-11-25T01:58:24.694Z,29.02
2022-11-25T01:59:30.474Z,29.83
2022-11-25T02:00:33.336Z,29.48
2022-11-25T02:01:36.133Z,27.13
2022-11-25T02:02:39.161Z,28.17
2022-11-25T02:03:44.624Z,26.90
2022-11-25T02:04:49.225Z,27.85
2022-11-25T02:05:57.984Z,27.25
2022-11-25T02:07:07.589Z,26.52
2022-11-25T02:08:10.986Z,28.60
2022-11-25T02:09:14.887Z,26.92
2022-11-25T02:10:24.368Z,28.00
2022-11-25T02:11:28.936Z,27.17
2022-11-25T02:12:32.305Z,27.27
2022-11-25T02:13:35.868Z,28.30
2022-11-25T02:14:39.037Z,27.77
2022-11-25T02:15:41.820Z,30.23
2022-11-25T02:16:44.626Z,26.85
2022-11-25T02:17:47.564Z,27.23
2022-11-25T02:18:50.688Z,29.60
2022-11-25T02:20:05.245Z,26.38
2022-11-25T02:21:08.703Z,27.23
2022-11-25T02:22:27.375Z,27.77
2022-11-25T02:23:58.881Z,26.95
2022-11-25T02:25:14.765Z,26.42
2022-11-25T02:26:17.768Z,25.98
2022-11-25T02:27:20.580Z,25.42
2022-11-25T02:28:26.833Z,25.85
2022-11-25T02:29:29.681Z,25.63
2022-11-25T02:30:33.317Z,24.52
2022-11-25T02:31:36.048Z,24.70
2022-11-25T02:32:46.820Z,28.63
2022-11-25T02:34:52.453Z,25.38
2022-11-25T02:35:55.493Z,26.52
2022-11-25T02:36:59.639Z,27.08
2022-11-25T02:38:30.789Z,26.80
2022-11-25T02:40:47.669Z,25.40
2022-11-25T02:41:55.859Z,26.83
2022-11-25T02:43:00.255Z,26.52
2022-11-25T02:44:03.892Z,27.02
2022-11-25T02:45:10.466Z,28.73
2022-11-25T02:46:21.805Z,28.80
2022-11-25T02:47:25.221Z,25.80
2022-11-25T02:48:52.857Z,28.15
2022-11-25T02:49:52.450Z,24.35
2022-11-25T02:50:55.236Z,26.80
2022-11-25T02:51:57.850Z,28.67
2022-11-25T02:53:01.864Z,27.98
2022-11-25T02:54:04.739Z,28.17
2022-11-25T02:55:07.753Z,26.50
2022-11-25T02:56:12.606Z,27.85
2022-11-25T02:57:15.270Z,27.33
2022-11-25T02:58:18.585Z,28.50
2022-11-25T02:59:21.313Z,28.02
2022-11-25T03:00:24.385Z,26.70
2022-11-25T03:01:28.224Z,28.10
2022-11-25T03:02:30.995Z,27.40
2022-11-25T03:03:33.694Z,27.35
2022-11-25T03:04:38.893Z,27.98
2022-11-25T03:05:41.691Z,29.08
2022-11-25T03:06:44.358Z,27.27
2022-11-25T03:07:47.025Z,26.95
2022-11-25T03:08:51.857Z,28.23
2022-11-25T03:09:54.475Z,28.70
2022-11-25T03:10:57.072Z,29.60
2022-11-25T03:12:17.995Z,28.98
2022-11-25T03:13:20.804Z,25.70
2022-11-25T03:14:24.021Z,28.33
2022-11-25T03:15:26.674Z,27.35
2022-11-25T03:16:29.426Z,26.15
2022-11-25T03:17:32.569Z,29.27
2022-11-25T03:18:35.309Z,27.17
2022-11-25T03:19:37.992Z,27.60
2022-11-25T03:20:40.894Z,26.75
2022-11-25T03:21:43.523Z,27.35
2022-11-25T03:22:46.711Z,27.98
2022-11-25T03:23:49.318Z,28.55
2022-11-25T03:24:53.269Z,27.33
2022-11-25T03:25:56.322Z,30.42
2022-11-25T03:26:59.504Z,28.38
2022-11-25T03:28:02.200Z,27.42
2022-11-25T03:29:05.116Z,26.55
2022-11-25T03:30:15.754Z,29.50
2022-11-25T03:31:19.357Z,26.38
2022-11-25T03:32:22.242Z,27.85
2022-11-25T03:33:24.920Z,28.25
2022-11-25T03:34:27.634Z,28.08
2022-11-25T03:35:30.458Z,27.50
2022-11-25T03:36:33.170Z,25.70
2022-11-25T03:37:36.645Z,25.45
2022-11-25T03:38:39.403Z,26.70
2022-11-25T03:39:42.721Z,28.38
2022-11-25T03:40:47.516Z,26.85
2022-11-25T03:41:50.478Z,27.98
2022-11-25T03:42:54.221Z,26.85
2022-11-25T03:43:56.911Z,27.85
2022-11-25T03:44:59.689Z,29.25
2022-11-25T03:46:02.507Z,29.08
2022-11-25T03:47:05.283Z,26.80
2022-11-25T03:48:08.361Z,28.55
2022-11-25T03:49:12.869Z,26.50
2022-11-25T03:50:16.182Z,28.15
2022-11-25T03:51:20.418Z,27.00
2022-11-25T03:52:24.734Z,25.67
2022-11-25T03:53:27.459Z,27.95
2022-11-25T03:54:30.371Z,29.45
2022-11-25T03:55:52.703Z,28.58
2022-11-25T03:56:57.771Z,27.23
2022-11-25T03:58:00.509Z,28.52
2022-11-25T03:59:03.508Z,29.10
2022-11-25T04:00:07.594Z,28.70
2022-11-25T04:01:20.525Z,28.48
2022-11-25T04:02:23.365Z,28.17
2022-11-25T04:03:26.377Z,30.33
2022-11-25T04:04:29.053Z,30.38
2022-11-25T04:05:31.732Z,30.27
2022-11-25T04:06:39.427Z,30.35
2022-11-25T04:07:42.142Z,30.25
2022-11-25T04:08:44.871Z,29.67
2022-11-25T04:09:48.633Z,29.20
2022-11-25T04:10:54.733Z,30.40
2022-11-25T04:12:19.230Z,30.38
2022-11-25T04:13:29.754Z,26.83
2022-11-25T04:14:33.245Z,29.98
2022-11-25T04:15:36.112Z,27.80
2022-11-25T04:16:38.914Z,28.83
2022-11-25T04:17:41.996Z,29.27
2022-11-25T04:18:44.690Z,26.98
2022-11-25T04:19:47.467Z,26.25
2022-11-25T04:20:50.300Z,27.75
2022-11-25T04:21:53.339Z,28.45
2022-11-25T04:22:56.152Z,29.65
2022-11-25T04:23:59.181Z,29.77
2022-11-25T04:25:01.987Z,28.17
2022-11-25T04:26:05.159Z,30.02
2022-11-25T04:27:12.771Z,30.33
2022-11-25T04:28:16.646Z,28.15
2022-11-25T04:29:20.109Z,27.50
2022-11-25T04:30:24.368Z,29.90
2022-11-25T04:31:28.067Z,33.03
2022-11-25T04:32:30.765Z,31.63
2022-11-25T04:33:34.205Z,31.60
2022-11-25T04:34:37.446Z,31.05
2022-11-25T04:35:40.248Z,29.05
2022-11-25T04:36:44.199Z,29.58
2022-11-25T04:37:47.211Z,32.75
2022-11-25T04:38:50.336Z,27.85
2022-11-25T04:39:53.937Z,29.33
2022-11-25T04:40:56.837Z,28.08
2022-11-25T04:42:17.938Z,29.60
2022-11-25T04:44:32.720Z,26.45
2022-11-25T04:45:51.860Z,27.90
2022-11-25T04:46:57.978Z,28.40
2022-11-25T04:48:00.806Z,26.73
2022-11-25T04:49:04.706Z,25.92
2022-11-25T04:50:12.967Z,28.55
2022-11-25T04:51:24.885Z,30.02
2022-11-25T04:52:33.810Z,27.75
2022-11-25T04:53:36.453Z,26.48
2022-11-25T04:54:39.497Z,27.60
2022-11-25T04:55:42.428Z,28.95
2022-11-25T04:56:50.445Z,24.30
2022-11-25T04:57:54.386Z,27.25
2022-11-25T04:59:15.808Z,25.73
2022-11-25T05:00:23.089Z,28.88
2022-11-25T05:01:25.880Z,29.45
2022-11-25T05:02:33.075Z,29.45
2022-11-25T05:03:48.779Z,30.88
2022-11-25T05:04:55.507Z,30.52
2022-11-25T05:05:59.254Z,32.70
2022-11-25T05:07:02.673Z,28.88
2022-11-25T05:08:05.919Z,30.20
2022-11-25T05:09:11.009Z,31.80
2022-11-25T05:10:15.367Z,33.00
2022-11-25T05:11:21.912Z,32.03
2022-11-25T05:12:28.388Z,30.92
2022-11-25T05:13:31.206Z,32.92
2022-11-25T05:14:35.840Z,30.27
2022-11-25T05:15:38.792Z,31.80
2022-11-25T05:16:43.779Z,30.50
2022-11-25T05:17:47.350Z,33.08
2022-11-25T05:18:56.169Z,31.38
2022-11-25T05:20:00.444Z,30.50
2022-11-25T05:21:05.528Z,31.73
2022-11-25T05:22:13.827Z,32.42
2022-11-25T05:23:17.307Z,30.80
2022-11-25T05:24:20.067Z,29.00
2022-11-25T05:25:26.810Z,27.25
2022-11-25T05:27:01.261Z,26.73
2022-11-25T05:28:04.921Z,27.63
2022-11-25T05:29:07.606Z,26.08
2022-11-25T05:30:11.242Z,28.00
2022-11-25T05:31:14.202Z,28.63
2022-11-25T05:32:17.422Z,26.33
2022-11-25T05:33:20.138Z,29.23
2022-11-25T05:34:23.324Z,28.25
2022-11-25T05:35:25.961Z,27.55
2022-11-25T05:36:29.276Z,26.60
2022-11-25T05:37:32.141Z,23.95
2022-11-25T05:38:39.671Z,25.48
2022-11-25T05:39:42.740Z,22.63
2022-11-25T05:41:01.944Z,24.08
2022-11-25T05:42:05.415Z,22.55
2022-11-25T05:43:08.013Z,23.65
2022-11-25T05:44:12.641Z,22.38
2022-11-25T05:45:15.308Z,24.60
2022-11-25T05:46:18.609Z,24.15
2022-11-25T05:47:26.244Z,22.63
2022-11-25T05:48:29.048Z,23.90
2022-11-25T05:49:31.995Z,23.70
2022-11-25T05:50:34.663Z,24.83
2022-11-25T05:51:39.282Z,23.13
2022-11-25T05:52:41.986Z,22.50
2022-11-25T05:53:44.560Z,23.35
2022-11-25T05:54:47.333Z,22.40
2022-11-25T05:55:57.816Z,24.30
2022-11-25T05:57:23.373Z,20.65
2022-11-25T05:58:31.085Z,22.67
2022-11-25T05:59:35.469Z,22.75
2022-11-25T06:00:45.751Z,21.05
2022-11-25T06:01:49.992Z,23.80
2022-11-25T06:02:53.076Z,21.42
2022-11-25T06:04:00.987Z,22.83
2022-11-25T06:05:05.041Z,23.30
2022-11-25T06:06:08.311Z,23.80
2022-11-25T06:07:10.942Z,22.67
2022-11-25T06:08:14.904Z,23.17
2022-11-25T06:09:17.621Z,22.83
2022-11-25T06:10:20.882Z,20.80
2022-11-25T06:11:25.662Z,23.25
2022-11-25T06:12:28.414Z,20.63
2022-11-25T06:13:31.018Z,20.50
2022-11-25T06:14:33.954Z,21.27
2022-11-25T06:15:42.318Z,20.42
2022-11-25T06:16:45.824Z,24.00
2022-11-25T06:18:16.779Z,19.85
2022-11-25T06:19:19.616Z,20.35
2022-11-25T06:20:22.527Z,21.45
2022-11-25T06:21:25.130Z,20.70
2022-11-25T06:22:27.937Z,21.10
2022-11-25T06:23:31.528Z,20.95
2022-11-25T06:24:34.693Z,20.48
2022-11-25T06:25:41.687Z,20.83
2022-11-25T06:26:44.370Z,22.48
2022-11-25T06:28:11.391Z,21.92
2022-11-25T06:29:10.554Z,22.75
2022-11-25T06:30:15.475Z,23.55
2022-11-25T06:31:25.284Z,21.65
2022-11-25T06:32:40.490Z,23.42
2022-11-25T06:33:54.864Z,22.50
2022-11-25T06:34:57.491Z,22.42
2022-11-25T06:36:08.272Z,20.80
2022-11-25T06:37:10.922Z,19.50
2022-11-25T06:38:13.554Z,20.42
2022-11-25T06:39:16.207Z,20.65
2022-11-25T06:40:19.112Z,23.02
2022-11-25T06:41:22.784Z,22.73
2022-11-25T06:42:25.452Z,20.50
2022-11-25T06:43:28.063Z,21.63
2022-11-25T06:44:30.701Z,23.02
2022-11-25T06:45:34.047Z,20.85
2022-11-25T06:46:36.839Z,22.88
2022-11-25T06:47:39.909Z,23.20
2022-11-25T06:48:42.535Z,21.42
2022-11-25T06:49:45.331Z,22.70
2022-11-25T06:50:56.882Z,22.52
2022-11-25T06:51:59.459Z,23.10
2022-11-25T06:53:02.537Z,22.73
2022-11-25T06:54:05.201Z,21.38
2022-11-25T06:55:08.213Z,23.27
2022-11-25T06:56:19.303Z,23.33
2022-11-25T06:57:22.032Z,23.13
2022-11-25T06:58:35.499Z,22.25
2022-11-25T06:59:38.895Z,23.23
2022-11-25T07:00:41.510Z,21.48
2022-11-25T07:01:44.412Z,23.50
2022-11-25T07:02:48.917Z,22.05
2022-11-25T07:03:58.955Z,24.40
2022-11-25T07:05:01.620Z,23.30
2022-11-25T07:06:04.587Z,21.08
2022-11-25T07:07:07.535Z,24.35
2022-11-25T07:08:10.179Z,23.70
2022-11-25T07:09:12.883Z,22.65
2022-11-25T07:10:15.570Z,23.83
2022-11-25T07:11:23.473Z,22.60
2022-11-25T07:12:26.228Z,21.75
2022-11-25T07:13:28.865Z,21.92
2022-11-25T07:14:31.476Z,22.08
2022-11-25T07:15:34.968Z,22.55
2022-11-25T07:16:39.154Z,23.02
2022-11-25T07:17:42.005Z,22.13
2022-11-25T07:18:44.914Z,25.38
2022-11-25T07:19:47.586Z,24.08
2022-11-25T07:20:50.362Z,22.92
2022-11-25T07:21:53.093Z,23.15
2022-11-25T07:22:55.733Z,23.65
2022-11-25T07:24:02.566Z,21.55
2022-11-25T07:25:05.944Z,24.77
2022-11-25T07:26:10.794Z,22.15
2022-11-25T07:27:13.411Z,23.33
2022-11-25T07:28:16.018Z,21.60
2022-11-25T07:32:10.451Z,24.55
2022-11-25T07:33:13.380Z,23.80
2022-11-25T07:34:20.106Z,22.58
2022-11-25T07:35:23.062Z,25.17
2022-11-25T07:36:26.847Z,20.48
2022-11-25T07:37:30.889Z,21.48
2022-11-25T07:38:33.998Z,22.02
2022-11-25T07:39:37.094Z,24.02
2022-11-25T07:40:39.935Z,24.17
2022-11-25T07:41:43.081Z,23.70
2022-11-25T07:42:45.737Z,22.48
2022-11-25T07:43:53.130Z,25.58
2022-11-25T07:44:58.575Z,25.25
2022-11-25T07:46:29.425Z,23.08
2022-11-25T07:47:35.148Z,21.38
2022-11-25T07:48:37.925Z,21.15
2022-11-25T07:49:40.593Z,20.60
2022-11-25T07:50:43.263Z,20.48
2022-11-25T07:51:51.205Z,19.15
2022-11-25T07:52:54.086Z,20.38
2022-11-25T07:53:58.278Z,21.98
2022-11-25T07:55:01.127Z,21.58
2022-11-25T07:56:04.030Z,22.48
2022-11-25T07:57:06.859Z,21.60
2022-11-25T07:58:09.531Z,20.73
2022-11-25T07:59:15.331Z,22.10
2022-11-25T08:00:18.399Z,21.95
2022-11-25T08:01:21.483Z,20.67
2022-11-25T08:02:24.227Z,21.63
2022-11-25T08:03:26.940Z,22.48
2022-11-25T08:04:29.607Z,21.20
2022-11-25T08:05:33.482Z,23.15
2022-11-25T08:06:39.265Z,22.63
2022-11-25T08:07:41.998Z,21.10
2022-11-25T08:08:45.320Z,21.35
2022-11-25T08:09:48.075Z,22.80
2022-11-25T08:10:50.863Z,20.60
2022-11-25T08:11:53.819Z,20.42
2022-11-25T08:12:56.598Z,22.42
2022-11-25T08:13:59.607Z,21.55
2022-11-25T08:15:02.387Z,20.77
2022-11-25T08:16:06.312Z,20.55
2022-11-25T08:17:09.030Z,20.80
2022-11-25T08:18:12.004Z,20.23
2022-11-25T08:19:17.325Z,21.33
2022-11-25T08:20:20.048Z,19.23
2022-11-25T08:21:22.895Z,20.58
2022-11-25T08:22:25.546Z,20.35
2022-11-25T08:23:28.254Z,19.95
2022-11-25T08:24:30.914Z,18.70
2022-11-25T08:25:33.580Z,19.50
2022-11-25T08:26:37.718Z,21.05
2022-11-25T08:27:41.364Z,21.30
2022-11-25T08:28:43.987Z,21.42
2022-11-25T08:29:46.624Z,24.25
2022-11-25T08:30:49.593Z,20.52
2022-11-25T08:31:52.924Z,21.30
2022-11-25T08:32:55.553Z,20.55
2022-11-25T08:33:59.086Z,20.85
2022-11-25T08:35:01.729Z,20.98
2022-11-25T08:36:05.743Z,20.80
2022-11-25T08:37:09.055Z,20.15
2022-11-25T08:38:12.092Z,21.10
2022-11-25T08:39:36.284Z,21.13
2022-11-25T08:40:38.148Z,20.42
2022-11-25T08:41:40.851Z,20.50
2022-11-25T08:42:43.510Z,20.90
2022-11-25T08:43:46.868Z,21.00
2022-11-25T08:44:56.143Z,21.33
2022-11-25T08:45:58.761Z,21.48
2022-11-25T08:47:01.530Z,22.17
2022-11-25T08:48:04.436Z,22.88
2022-11-25T08:49:09.450Z,21.08
2022-11-25T08:50:14.651Z,23.23
2022-11-25T08:51:19.871Z,21.63
2022-11-25T08:52:23.023Z,20.67
2022-11-25T08:53:25.773Z,25.10
2022-11-25T08:54:28.533Z,21.13
2022-11-25T08:55:32.778Z,21.38
2022-11-25T08:56:36.042Z,20.95
2022-11-25T08:57:38.643Z,21.38
2022-11-25T08:58:41.271Z,21.58
2022-11-25T08:59:44.021Z,21.73
2022-11-25T09:00:46.607Z,21.13
2022-11-25T09:01:49.348Z,21.58
2022-11-25T09:02:52.088Z,20.55
2022-11-25T09:03:56.309Z,20.88
2022-11-25T09:04:59.016Z,19.85
2022-11-25T09:06:02.145Z,18.75
2022-11-25T09:07:05.416Z,22.90
2022-11-25T09:08:09.441Z,19.77
2022-11-25T09:09:12.127Z,20.75
2022-11-25T09:10:17.039Z,20.30
2022-11-25T09:11:19.904Z,19.83
2022-11-25T09:12:22.660Z,20.20
2022-11-25T09:13:25.412Z,20.42
2022-11-25T09:14:28.108Z,20.33
2022-11-25T09:15:31.607Z,19.80
2022-11-25T09:16:34.450Z,22.08
2022-11-25T09:17:37.471Z,20.60
2022-11-25T09:18:40.155Z,22.08
2022-11-25T09:19:42.769Z,19.83
2022-11-25T09:20:46.053Z,20.58
2022-11-25T09:21:48.854Z,22.63
2022-11-25T09:22:51.548Z,21.90
2022-11-25T09:23:54.864Z,21.35
2022-11-25T09:24:57.682Z,21.05
2022-11-25T09:26:00.367Z,20.25
2022-11-25T09:27:03.438Z,21.10
2022-11-25T09:28:06.193Z,21.10
2022-11-25T09:29:08.980Z,21.02
2022-11-25T09:30:12.171Z,20.50
2022-11-25T09:31:14.924Z,19.95
2022-11-25T09:32:17.560Z,20.75
2022-11-25T09:33:21.177Z,20.92
2022-11-25T09:34:24.529Z,20.55
2022-11-25T09:35:27.712Z,19.95
2022-11-25T09:36:30.427Z,20.50
2022-11-25T09:37:33.090Z,19.15
2022-11-25T09:38:42.781Z,19.58
2022-11-25T09:39:45.892Z,19.80
2022-11-25T09:40:52.979Z,19.33
2022-11-25T09:42:37.381Z,19.80
2022-11-25T09:44:01.353Z,21.00
2022-11-25T09:45:36.178Z,19.90
2022-11-25T09:46:56.646Z,22.83
2022-11-25T09:48:30.526Z,19.90
2022-11-25T09:49:56.030Z,20.23
2022-11-25T09:51:19.202Z,18.88
2022-11-25T09:52:43.214Z,19.55
2022-11-25T09:53:56.871Z,20.42
2022-11-25T09:55:24.194Z,23.30
2022-11-25T09:56:35.499Z,20.50
2022-11-25T09:58:02.952Z,21.83
2022-11-25T09:59:43.045Z,20.70
2022-11-25T10:00:48.272Z,20.42
2022-11-25T10:02:01.961Z,20.80
2022-11-25T10:03:45.484Z,20.27
2022-11-25T10:04:55.547Z,18.50
2022-11-25T10:06:08.230Z,20.85
2022-11-25T10:07:18.575Z,21.02
2022-11-25T10:08:24.311Z,20.58
2022-11-25T10:09:30.482Z,20.65
2022-11-25T10:10:45.182Z,20.10
2022-11-25T10:11:54.050Z,20.95
2022-11-25T10:12:58.736Z,20.25
2022-11-25T10:14:03.850Z,20.30
2022-11-25T10:15:18.959Z,20.88
2022-11-25T10:16:30.185Z,20.20
2022-11-25T10:17:44.466Z,20.98
2022-11-25T10:18:56.638Z,20.40
2022-11-25T10:19:59.231Z,21.33
2022-11-25T10:21:01.974Z,20.17
2022-11-25T10:22:24.973Z,21.15
2022-11-25T10:23:38.398Z,19.45
2022-11-25T10:24:41.467Z,21.50
2022-11-25T10:25:48.951Z,21.70
2022-11-25T10:27:06.087Z,22.92
2022-11-25T10:28:22.986Z,21.25
2022-11-25T10:29:28.479Z,21.60
2022-11-25T10:30:56.161Z,19.90
2022-11-25T10:32:19.745Z,19.23
2022-11-25T10:33:26.719Z,20.33
2022-11-25T10:34:36.322Z,20.15
2022-11-25T10:35:43.961Z,21.50
2022-11-25T10:36:49.160Z,20.85
2022-11-25T10:37:55.246Z,21.55
2022-11-25T10:39:24.574Z,21.67
2022-11-25T10:40:27.316Z,19.70
2022-11-25T10:41:37.496Z,18.92
2022-11-25T10:42:40.128Z,21.50
2022-11-25T10:43:46.157Z,19.75
2022-11-25T10:44:49.047Z,20.38
2022-11-25T10:46:49.666Z,19.13
2022-11-25T10:48:02.089Z,19.33
2022-11-25T10:49:30.601Z,19.05
2022-11-25T10:50:52.827Z,20.35
2022-11-25T10:51:57.511Z,20.20
2022-11-25T10:53:13.648Z,22.13
2022-11-25T10:54:27.312Z,22.13
2022-11-25T10:55:33.376Z,21.63
2022-11-25T10:56:50.424Z,23.27
2022-11-25T10:57:53.965Z,20.67
2022-11-25T10:58:56.622Z,20.77
2022-11-25T11:00:00.264Z,22.25
2022-11-25T11:01:07.229Z,23.55
2022-11-25T11:02:35.929Z,21.20
2022-11-25T11:03:38.671Z,21.55
2022-11-25T11:05:01.025Z,24.42
2022-11-25T11:06:03.728Z,22.42
2022-11-25T11:07:09.622Z,22.38
2022-11-25T11:08:12.236Z,21.63
2022-11-25T11:09:33.893Z,23.02
2022-11-25T11:10:37.006Z,20.90
2022-11-25T11:11:49.779Z,23.27
2022-11-25T11:13:25.234Z,23.20
2022-11-25T11:14:30.004Z,20.48
2022-11-25T11:15:45.396Z,22.83
2022-11-25T11:16:57.472Z,25.30
2022-11-25T11:18:34.642Z,22.05
2022-11-25T11:19:37.438Z,24.45
2022-11-25T11:20:46.883Z,23.73
2022-11-25T11:21:50.332Z,23.25
2022-11-25T11:22:58.428Z,21.95
2022-11-25T11:24:02.023Z,26.02
2022-11-25T11:25:29.627Z,22.40
2022-11-25T11:26:34.287Z,23.45
2022-11-25T11:27:38.517Z,24.20
2022-11-25T11:28:41.758Z,22.88
2022-11-25T11:29:44.418Z,25.05
2022-11-25T11:30:59.108Z,22.52
2022-11-25T11:32:06.810Z,25.02
2022-11-25T11:33:43.864Z,25.48
2022-11-25T11:35:04.270Z,25.45
2022-11-25T11:36:16.778Z,24.75
2022-11-25T11:37:47.722Z,24.40
2022-11-25T11:39:22.152Z,25.23
2022-11-25T11:40:40.051Z,24.98
2022-11-25T11:41:55.288Z,25.70
2022-11-25T11:43:09.554Z,24.98
2022-11-25T11:44:41.922Z,25.95
2022-11-25T11:46:02.866Z,23.63
2022-11-25T11:48:41.526Z,23.00
2022-11-25T11:49:47.114Z,21.85
2022-11-25T11:50:53.632Z,23.95
2022-11-25T11:52:10.439Z,23.15
2022-11-25T11:53:35.548Z,25.35
2022-11-25T11:54:46.108Z,23.63
2022-11-25T11:56:32.862Z,24.25
2022-11-25T11:57:44.714Z,23.92
2022-11-25T11:59:04.308Z,24.70
2022-11-25T12:00:29.147Z,23.73
2022-11-25T12:01:47.970Z,24.27
2022-11-25T12:03:14.844Z,24.88
2022-11-25T12:04:31.136Z,24.73
2022-11-25T12:05:35.204Z,24.67
2022-11-25T12:06:38.933Z,23.50
2022-11-25T12:07:53.015Z,25.63
2022-11-25T12:09:03.781Z,24.42
2022-11-25T12:10:16.038Z,25.88
2022-11-25T12:11:21.730Z,24.25
2022-11-25T12:12:35.145Z,25.67
2022-11-25T12:13:49.498Z,26.38
2022-11-25T12:15:01.499Z,24.27
2022-11-25T12:16:10.263Z,25.85
2022-11-25T12:17:28.916Z,25.42
2022-11-25T12:18:47.713Z,24.27
2022-11-25T12:20:19.431Z,24.63
2022-11-25T12:21:48.949Z,25.35
2022-11-25T12:23:40.379Z,25.73
2022-11-25T12:24:54.300Z,24.15
2022-11-25T12:26:03.221Z,24.20
2022-11-25T12:27:11.872Z,26.98
2022-11-25T12:28:17.677Z,24.75
2022-11-25T12:29:41.701Z,25.40
2022-11-25T12:31:06.649Z,23.92
2022-11-25T12:32:38.079Z,24.70
2022-11-25T12:33:43.943Z,24.58
2022-11-25T12:34:54.317Z,25.17
2022-11-25T12:36:04.767Z,23.20
2022-11-25T12:37:16.473Z,23.80
2022-11-25T12:38:28.296Z,24.02
2022-11-25T12:39:52.411Z,24.63
2022-11-25T12:41:16.240Z,25.35
2022-11-25T12:42:24.371Z,24.13
2022-11-25T12:43:56.147Z,24.88
2022-11-25T12:45:06.044Z,23.88
2022-11-25T12:46:34.597Z,25.35
2022-11-25T12:47:37.322Z,27.20
2022-11-25T12:48:41.476Z,24.88
2022-11-25T12:49:46.601Z,25.33
2022-11-25T12:51:13.168Z,24.95
2022-11-25T12:52:54.540Z,24.58
2022-11-25T12:54:11.386Z,24.33
2022-11-25T12:55:24.072Z,25.05
2022-11-25T12:56:57.383Z,24.10
2022-11-25T12:58:37.125Z,23.85
2022-11-25T13:00:39.148Z,23.85
2022-11-25T13:02:11.568Z,25.75
2022-11-25T13:03:32.757Z,23.85
2022-11-25T13:04:46.962Z,28.10
2022-11-25T13:06:13.781Z,26.88
2022-11-25T13:07:24.968Z,24.30
2022-11-25T13:09:06.150Z,27.23
2022-11-25T13:10:32.894Z,26.88
2022-11-25T13:11:35.858Z,24.70
2022-11-25T13:13:05.044Z,27.13
2022-11-25T13:14:24.100Z,26.67
2022-11-25T13:15:38.225Z,25.50
2022-11-25T13:16:43.259Z,25.27
2022-11-25T13:17:48.467Z,25.13
2022-11-25T13:18:51.539Z,24.30
2022-11-25T13:20:28.920Z,26.13
2022-11-25T13:21:31.615Z,25.25
2022-11-25T13:22:34.325Z,26.75
2022-11-25T13:23:52.912Z,27.25
2022-11-25T13:24:57.705Z,26.15
2022-11-25T13:26:29.036Z,25.98
2022-11-25T13:27:40.284Z,24.90
2022-11-25T13:28:43.003Z,24.42
2022-11-25T13:29:55.211Z,26.20
2022-11-25T13:31:17.502Z,25.38
2022-11-25T13:32:32.075Z,25.52
2022-11-25T13:33:43.564Z,26.35
2022-11-25T13:34:46.332Z,26.42
2022-11-25T13:35:51.745Z,26.15
2022-11-25T13:36:56.152Z,24.75
2022-11-25T13:37:58.911Z,28.02
2022-11-25T13:39:06.416Z,26.33
2022-11-25T13:40:25.463Z,26.42
2022-11-25T13:41:42.692Z,25.63
2022-11-25T13:42:45.397Z,24.55
2022-11-25T13:44:14.092Z,25.05
2022-11-25T13:45:37.515Z,25.67
2022-11-25T13:46:58.390Z,26.15
2022-11-25T13:48:16.466Z,26.33
2022-11-25T13:49:30.489Z,28.08
2022-11-25T13:51:03.023Z,27.13
2022-11-25T13:52:05.044Z,26.63
2022-11-25T13:53:32.589Z,25.33
2022-11-25T13:54:46.340Z,24.90
2022-11-25T13:55:50.458Z,25.10
2022-11-25T13:57:28.932Z,27.17
2022-11-25T13:58:35.962Z,23.55
2022-11-25T13:59:50.890Z,25.25
2022-11-25T14:00:59.801Z,22.92
2022-11-25T14:02:27.656Z,24.50
2022-11-25T14:03:30.549Z,25.95
2022-11-25T14:05:09.282Z,26.58
2022-11-25T14:06:36.442Z,24.17
2022-11-25T14:07:45.242Z,26.02
2022-11-25T14:09:04.067Z,25.60
2022-11-25T14:10:20.861Z,25.58
2022-11-25T14:11:51.982Z,26.13
2022-11-25T14:15:48.805Z,24.38
2022-11-25T14:17:28.955Z,23.63
2022-11-25T14:20:30.853Z,22.08
2022-11-25T14:21:45.460Z,23.42
2022-11-25T14:22:56.810Z,22.42
2022-11-25T14:24:25.379Z,24.13
2022-11-25T14:25:31.116Z,23.75
2022-11-25T14:26:55.890Z,24.33
2022-11-25T14:28:15.008Z,24.10
2022-11-25T14:29:22.334Z,26.02
2022-11-25T14:30:25.730Z,22.70
2022-11-25T14:31:37.266Z,27.50
2022-11-25T14:33:01.148Z,24.05
2022-11-25T14:34:18.016Z,22.67
2022-11-25T14:35:23.360Z,24.45
2022-11-25T14:36:37.137Z,25.77
2022-11-25T14:38:11.155Z,24.92
2022-11-25T14:39:23.257Z,23.88
2022-11-25T14:40:31.969Z,22.92
2022-11-25T14:41:44.151Z,24.30
2022-11-25T14:42:49.742Z,25.63
2022-11-25T14:44:01.033Z,24.80
2022-11-25T14:45:04.110Z,25.17
2022-11-25T14:46:20.999Z,24.02
2022-11-25T14:47:25.776Z,24.52
2022-11-25T14:48:28.409Z,26.55
2022-11-25T14:50:05.319Z,24.23
2022-11-25T14:51:18.645Z,23.75
2022-11-25T14:52:25.413Z,27.55